Time;durP1;ratioP1;P1;durP2;ratioP2;P2;SDS_P1;SDS_P2;PMS_P1;PMS_P2;Temp;Humidity;BMP_temperature;BMP_pressure;BME280_temperature;BME280_humidity;BME280_pressure;Samples;Min_cycle;Max_cycle;Signal;HPM_P1;HPM_P2
2023/05/08 00:00:05;;;;;;;10.20;9.33;;;;;;;;;;4958344;29;20676;-64
2023/05/08 00:02:35;;;;;;;13.10;11.40;;;;;;;;;;4939980;29;20635;-64
2023/05/08 00:05:03;;;;;;;10.60;9.60;;;;;;;;;;4957479;29;20672;-64
2023/05/08 00:07:31;;;;;;;12.40;11.23;;;;;;;;;;4957366;29;20631;-64
2023/05/08 00:10:00;;;;;;;13.07;11.70;;;;;;;;;;4957640;29;20666;-64
2023/05/08 00:12:28;;;;;;;11.93;10.70;;;;;;;;;;4957665;29;20652;-64
2023/05/08 00:14:56;;;;;;;11.43;10.20;;;;;;;;;;4957734;29;20640;-64
2023/05/08 00:17:24;;;;;;;12.67;11.57;;;;;;;;;;4957509;29;20675;-65
2023/05/08 00:19:56;;;;;;;13.43;11.37;;;;;;;;;;4957850;29;20664;-64
2023/05/08 00:22:24;;;;;;;13.00;11.70;;;;;;;;;;4958855;29;20620;-64
2023/05/08 00:24:53;;;;;;;13.03;11.83;;;;;;;;;;4944979;29;20674;-64
2023/05/08 00:27:21;;;;;;;12.40;11.40;;;;;;;;;;4938311;29;20616;-64
2023/05/08 00:29:49;;;;;;;13.10;11.80;;;;;;;;;;4925634;29;20636;-64
2023/05/08 00:32:18;;;;;;;13.63;12.30;;;;;;;;;;4975779;29;20634;-64
2023/05/08 00:34:46;;;;;;;13.00;11.70;;;;;;;;;;4975918;29;20608;-64
2023/05/08 00:37:15;;;;;;;14.60;13.10;;;;;;;;;;4963169;29;21182;-64
2023/05/08 00:39:43;;;;;;;14.73;11.70;;;;;;;;;;4955197;29;20682;-64
2023/05/08 00:42:12;;;;;;;13.37;12.13;;;;;;;;;;4958202;29;20633;-65
2023/05/08 00:44:40;;;;;;;15.83;12.93;;;;;;;;;;4955541;29;20638;-65
2023/05/08 00:47:09;;;;;;;14.53;13.13;;;;;;;;;;4958607;29;20663;-64
2023/05/08 00:49:37;;;;;;;13.40;12.00;;;;;;;;;;4936754;29;20644;-64
2023/05/08 00:52:07;;;;;;;15.60;13.37;;;;;;;;;;4938484;29;20611;-64
2023/05/08 00:54:37;;;;;;;16.20;12.47;;;;;;;;;;4937260;29;20621;-64
2023/05/08 00:57:07;;;;;;;16.57;14.73;;;;;;;;;;4938880;29;20652;-64
2023/05/08 00:59:36;;;;;;;16.57;14.93;;;;;;;;;;4938163;29;20620;-64
2023/05/08 01:02:04;;;;;;;17.70;15.80;;;;;;;;;;4926348;29;21080;-63
2023/05/08 01:04:34;;;;;;;19.77;16.87;;;;;;;;;;4940415;29;20639;-63
2023/05/08 01:07:03;;;;;;;18.87;16.87;;;;;;;;;;4939129;29;20619;-62
2023/05/08 01:09:31;;;;;;;18.60;16.73;;;;;;;;;;4933768;29;21296;-62
2023/05/08 01:12:08;;;;;;;18.87;17.07;;;;;;;;;;4953445;29;20650;-62
2023/05/08 01:14:41;;;;;;;19.40;17.50;;;;;;;;;;4939733;29;20602;-63
2023/05/08 01:17:11;;;;;;;19.10;17.20;;;;;;;;;;4940526;29;20711;-62
2023/05/08 01:19:54;;;;;;;19.83;17.90;;;;;;;;;;4939542;29;20639;-63
2023/05/08 01:22:32;;;;;;;22.00;17.40;;;;;;;;;;4941331;29;20635;-62
2023/05/08 01:25:24;;;;;;;19.10;17.13;;;;;;;;;;4939996;29;20623;-63
2023/05/08 01:28:05;;;;;;;20.70;18.70;;;;;;;;;;4903090;29;20737;-62
2023/05/08 01:30:51;;;;;;;21.70;19.50;;;;;;;;;;4939928;29;20640;-62
2023/05/08 01:33:24;;;;;;;20.70;18.30;;;;;;;;;;4939895;29;20648;-63
2023/05/08 01:35:54;;;;;;;22.07;19.60;;;;;;;;;;4940045;29;20699;-61
2023/05/08 01:38:27;;;;;;;22.07;19.70;;;;;;;;;;4940249;29;20692;-62
2023/05/08 01:40:58;;;;;;;21.27;19.07;;;;;;;;;;4939889;29;20648;-62
2023/05/08 01:43:30;;;;;;;22.93;20.47;;;;;;;;;;4923086;29;20619;-62
2023/05/08 01:46:00;;;;;;;23.90;21.47;;;;;;;;;;4922894;29;20616;-62
2023/05/08 01:48:31;;;;;;;25.83;23.13;;;;;;;;;;4938761;29;20711;-62
2023/05/08 01:51:03;;;;;;;25.47;22.43;;;;;;;;;;4934204;29;20645;-63
2023/05/08 01:53:35;;;;;;;25.40;22.70;;;;;;;;;;4938939;29;20691;-62
2023/05/08 01:56:06;;;;;;;25.33;21.97;;;;;;;;;;4930107;29;20587;-63
2023/05/08 01:58:36;;;;;;;25.13;22.00;;;;;;;;;;4939663;29;20682;-61
2023/05/08 02:01:04;;;;;;;28.50;23.20;;;;;;;;;;4940241;29;20643;-63
2023/05/08 02:03:34;;;;;;;25.83;22.57;;;;;;;;;;4939035;29;20599;-62
2023/05/08 02:06:03;;;;;;;26.03;22.70;;;;;;;;;;4940056;29;20957;-62
2023/05/08 02:08:32;;;;;;;26.47;23.70;;;;;;;;;;4940659;29;20695;-62
2023/05/08 02:11:01;;;;;;;34.77;28.80;;;;;;;;;;4940090;29;21216;-62
2023/05/08 02:13:33;;;;;;;30.20;24.40;;;;;;;;;;4924482;29;20611;-63
2023/05/08 02:16:07;;;;;;;30.20;26.90;;;;;;;;;;4940083;29;20676;-62
2023/05/08 02:18:39;;;;;;;33.40;28.07;;;;;;;;;;4923525;29;20688;-63
2023/05/08 02:21:08;;;;;;;33.83;27.00;;;;;;;;;;4939373;29;20723;-62
2023/05/08 02:23:36;;;;;;;38.67;28.37;;;;;;;;;;4939546;29;20707;-63
2023/05/08 02:26:05;;;;;;;30.97;25.77;;;;;;;;;;4939393;29;20634;-63
2023/05/08 02:28:34;;;;;;;37.73;27.80;;;;;;;;;;4940096;29;20686;-62
2023/05/08 02:31:02;;;;;;;32.87;27.43;;;;;;;;;;4940400;29;20715;-62
2023/05/08 02:33:31;;;;;;;35.50;26.77;;;;;;;;;;4957145;29;20698;-62
2023/05/08 02:36:01;;;;;;;31.30;27.47;;;;;;;;;;4958524;29;20607;-63
2023/05/08 02:38:30;;;;;;;34.50;28.07;;;;;;;;;;4958697;29;20635;-62
2023/05/08 02:41:01;;;;;;;32.63;26.97;;;;;;;;;;4958598;29;21050;-62
2023/05/08 02:43:30;;;;;;;34.03;27.50;;;;;;;;;;4957155;29;20588;-61
2023/05/08 02:46:06;;;;;;;34.77;26.10;;;;;;;;;;4958127;29;20604;-61
2023/05/08 02:48:38;;;;;;;30.50;25.13;;;;;;;;;;4935571;29;20640;-62
2023/05/08 02:51:15;;;;;;;29.57;26.10;;;;;;;;;;4923238;29;20700;-63
2023/05/08 02:53:47;;;;;;;34.63;28.80;;;;;;;;;;4939650;29;20584;-63
2023/05/08 02:56:19;;;;;;;30.40;26.53;;;;;;;;;;4935320;29;20720;-61
2023/05/08 02:58:50;;;;;;;27.97;23.03;;;;;;;;;;4953775;29;20654;-62
2023/05/08 03:01:22;;;;;;;37.60;26.43;;;;;;;;;;4938040;29;20660;-63
2023/05/08 03:03:53;;;;;;;27.63;24.43;;;;;;;;;;4921557;29;20679;-62
2023/05/08 03:06:25;;;;;;;30.23;23.93;;;;;;;;;;4938368;29;20692;-62
2023/05/08 03:08:54;;;;;;;32.07;26.10;;;;;;;;;;4921686;29;20556;-63
2023/05/08 03:11:25;;;;;;;34.27;25.67;;;;;;;;;;4938101;29;20721;-62
2023/05/08 03:13:56;;;;;;;30.10;24.83;;;;;;;;;;4938388;29;20613;-62
2023/05/08 03:16:25;;;;;;;34.40;27.07;;;;;;;;;;4938479;29;20642;-62
2023/05/08 03:18:55;;;;;;;31.47;25.67;;;;;;;;;;4938214;29;20686;-61
2023/05/08 03:21:27;;;;;;;31.97;25.57;;;;;;;;;;4934525;29;20699;-62
2023/05/08 03:23:57;;;;;;;30.07;24.83;;;;;;;;;;4932685;29;20690;-62
2023/05/08 03:26:26;;;;;;;36.10;25.73;;;;;;;;;;4932883;29;21233;-61
2023/05/08 03:28:54;;;;;;;32.17;26.73;;;;;;;;;;4938571;29;21214;-63
2023/05/08 03:31:27;;;;;;;41.20;29.07;;;;;;;;;;4922898;29;20961;-63
2023/05/08 03:33:56;;;;;;;34.20;27.27;;;;;;;;;;4902789;29;20679;-63
2023/05/08 03:36:27;;;;;;;37.27;27.23;;;;;;;;;;4918966;29;20713;-62
2023/05/08 03:38:56;;;;;;;31.30;25.40;;;;;;;;;;4918198;29;20590;-63
2023/05/08 03:41:26;;;;;;;37.73;27.47;;;;;;;;;;4911330;29;20671;-61
2023/05/08 03:43:54;;;;;;;32.53;27.83;;;;;;;;;;4939759;29;20711;-62
2023/05/08 03:46:23;;;;;;;37.70;30.33;;;;;;;;;;4932696;29;20995;-62
2023/05/08 03:48:52;;;;;;;38.83;31.40;;;;;;;;;;4938543;29;20584;-62
2023/05/08 03:51:22;;;;;;;40.57;30.20;;;;;;;;;;4936957;29;21001;-62
2023/05/08 03:53:52;;;;;;;41.27;31.40;;;;;;;;;;4937437;29;20547;-61
2023/05/08 03:56:20;;;;;;;40.00;30.70;;;;;;;;;;4937249;29;20690;-62
2023/05/08 03:58:51;;;;;;;40.23;31.37;;;;;;;;;;4935426;29;21291;-62
2023/05/08 04:01:24;;;;;;;41.80;30.90;;;;;;;;;;4937465;29;21184;-63
2023/05/08 04:03:56;;;;;;;44.50;32.60;;;;;;;;;;4936520;29;20668;-63
2023/05/08 04:06:27;;;;;;;36.90;29.40;;;;;;;;;;4920389;29;21006;-64
2023/05/08 04:09:02;;;;;;;37.90;30.63;;;;;;;;;;4934356;29;21132;-66
2023/05/08 04:11:32;;;;;;;38.90;30.60;;;;;;;;;;4899909;29;20603;-66
2023/05/08 04:14:02;;;;;;;38.00;30.60;;;;;;;;;;4891139;29;20603;-66
2023/05/08 04:16:33;;;;;;;38.87;31.03;;;;;;;;;;4900605;29;20585;-66
2023/05/08 04:19:06;;;;;;;43.13;34.80;;;;;;;;;;4913660;29;20975;-66
2023/05/08 04:21:35;;;;;;;43.00;33.53;;;;;;;;;;4898542;29;21166;-66
2023/05/08 04:24:10;;;;;;;42.70;32.70;;;;;;;;;;4897774;29;21189;-66
2023/05/08 04:26:39;;;;;;;41.87;30.47;;;;;;;;;;4898915;29;20621;-66
2023/05/08 04:29:08;;;;;;;41.87;32.00;;;;;;;;;;4897689;29;20999;-66
2023/05/08 04:31:37;;;;;;;49.00;34.23;;;;;;;;;;4899175;29;21193;-66
2023/05/08 04:34:07;;;;;;;41.00;31.07;;;;;;;;;;4898482;29;20634;-65
2023/05/08 04:36:36;;;;;;;40.13;30.73;;;;;;;;;;4899207;29;20625;-65
2023/05/08 04:39:07;;;;;;;43.23;32.10;;;;;;;;;;4912527;29;20593;-65
2023/05/08 04:41:35;;;;;;;41.43;29.27;;;;;;;;;;4898904;29;20615;-65
2023/05/08 04:44:05;;;;;;;42.87;30.37;;;;;;;;;;4897553;29;20597;-66
2023/05/08 04:46:33;;;;;;;41.23;30.60;;;;;;;;;;4899573;29;20603;-66
2023/05/08 04:49:01;;;;;;;39.90;29.77;;;;;;;;;;4913109;29;20596;-66
2023/05/08 04:51:31;;;;;;;31.37;27.03;;;;;;;;;;4914099;29;20572;-66
2023/05/08 04:54:00;;;;;;;33.03;26.97;;;;;;;;;;4906468;29;20625;-66
2023/05/08 04:56:30;;;;;;;31.80;26.27;;;;;;;;;;4921247;29;20601;-66
2023/05/08 04:58:59;;;;;;;32.00;26.90;;;;;;;;;;4898035;29;20592;-66
2023/05/08 05:01:27;;;;;;;32.33;27.20;;;;;;;;;;4912576;29;20630;-66
2023/05/08 05:03:56;;;;;;;33.43;27.00;;;;;;;;;;4896906;29;20700;-66
2023/05/08 05:06:24;;;;;;;33.07;26.37;;;;;;;;;;4912523;29;20620;-66
2023/05/08 05:08:52;;;;;;;30.10;26.00;;;;;;;;;;4908426;29;20650;-66
2023/05/08 05:11:21;;;;;;;29.10;25.30;;;;;;;;;;4932131;29;20656;-66
2023/05/08 05:13:51;;;;;;;33.67;26.47;;;;;;;;;;4933412;29;20673;-66
2023/05/08 05:16:19;;;;;;;33.97;25.07;;;;;;;;;;4944280;29;21137;-66
2023/05/08 05:18:48;;;;;;;35.80;26.70;;;;;;;;;;4946101;29;20626;-66
2023/05/08 05:21:16;;;;;;;31.83;25.77;;;;;;;;;;4933236;29;21164;-66
2023/05/08 05:23:45;;;;;;;29.33;24.53;;;;;;;;;;4922368;29;20646;-66
2023/05/08 05:26:13;;;;;;;31.07;26.97;;;;;;;;;;4924517;29;20629;-66
2023/05/08 05:28:41;;;;;;;28.37;24.57;;;;;;;;;;4932649;29;20635;-66
2023/05/08 05:31:11;;;;;;;36.00;24.10;;;;;;;;;;4924970;29;21019;-66
2023/05/08 05:33:41;;;;;;;31.10;25.60;;;;;;;;;;4921750;29;20614;-66
2023/05/08 05:36:09;;;;;;;36.60;27.87;;;;;;;;;;4930839;29;21153;-66
2023/05/08 05:38:37;;;;;;;34.20;27.10;;;;;;;;;;4930910;29;20620;-65
2023/05/08 05:41:06;;;;;;;35.73;24.90;;;;;;;;;;4935812;29;20615;-65
2023/05/08 05:43:35;;;;;;;35.13;28.57;;;;;;;;;;4946742;29;20666;-66
2023/05/08 05:46:06;;;;;;;33.20;26.37;;;;;;;;;;4932103;29;20680;-68
2023/05/08 05:48:36;;;;;;;27.87;24.07;;;;;;;;;;4920342;29;20705;-70
2023/05/08 05:51:05;;;;;;;31.00;24.10;;;;;;;;;;4923676;29;20621;-69
2023/05/08 05:53:33;;;;;;;33.37;24.67;;;;;;;;;;4936391;29;20983;-69
2023/05/08 05:56:01;;;;;;;27.90;23.13;;;;;;;;;;4935641;29;20617;-68
2023/05/08 05:58:31;;;;;;;31.27;24.87;;;;;;;;;;4931650;29;20630;-68
2023/05/08 06:01:00;;;;;;;27.93;22.60;;;;;;;;;;4952647;29;20585;-68
2023/05/08 06:03:29;;;;;;;28.77;23.77;;;;;;;;;;4952693;29;20646;-68
2023/05/08 06:05:58;;;;;;;28.97;21.33;;;;;;;;;;4920716;29;20625;-67
2023/05/08 06:08:28;;;;;;;29.00;21.67;;;;;;;;;;4920806;29;20591;-68
2023/05/08 06:10:57;;;;;;;36.80;23.83;;;;;;;;;;4937863;29;20731;-68
2023/05/08 06:13:26;;;;;;;24.90;21.63;;;;;;;;;;4918112;29;20632;-68
2023/05/08 06:15:56;;;;;;;31.60;22.80;;;;;;;;;;4935805;29;20611;-68
2023/05/08 06:18:25;;;;;;;29.63;22.23;;;;;;;;;;4920178;29;20611;-68
2023/05/08 06:20:57;;;;;;;36.70;21.90;;;;;;;;;;4937001;29;20690;-66
2023/05/08 06:23:27;;;;;;;30.93;20.57;;;;;;;;;;4936610;29;20751;-67
2023/05/08 06:25:55;;;;;;;32.03;21.73;;;;;;;;;;4934359;29;20865;-68
2023/05/08 06:28:24;;;;;;;27.10;20.70;;;;;;;;;;4931954;29;21186;-68
2023/05/08 06:30:53;;;;;;;26.13;21.33;;;;;;;;;;4934551;29;20607;-67
2023/05/08 06:33:21;;;;;;;29.37;22.73;;;;;;;;;;4936347;29;20633;-67
2023/05/08 06:35:49;;;;;;;31.00;21.13;;;;;;;;;;4947581;29;20636;-67
2023/05/08 06:38:18;;;;;;;26.60;20.43;;;;;;;;;;4937633;29;20623;-68
2023/05/08 06:40:48;;;;;;;28.30;21.50;;;;;;;;;;4939962;29;20731;-66
2023/05/08 06:43:17;;;;;;;27.13;20.50;;;;;;;;;;4938458;29;20631;-67
2023/05/08 06:45:45;;;;;;;22.93;20.20;;;;;;;;;;4939660;29;20694;-68
2023/05/08 06:48:13;;;;;;;35.80;23.27;;;;;;;;;;4937687;29;20647;-68
2023/05/08 06:50:42;;;;;;;26.53;20.10;;;;;;;;;;4938535;29;20723;-68
2023/05/08 06:53:10;;;;;;;27.97;20.60;;;;;;;;;;4946347;29;20642;-68
2023/05/08 06:55:38;;;;;;;26.30;19.20;;;;;;;;;;4949258;29;21175;-67
2023/05/08 06:58:08;;;;;;;31.33;22.10;;;;;;;;;;4935934;29;20628;-68
2023/05/08 07:00:36;;;;;;;23.57;20.53;;;;;;;;;;4933252;29;20632;-69
2023/05/08 07:03:05;;;;;;;22.37;20.00;;;;;;;;;;4934684;29;20668;-68
2023/05/08 07:05:33;;;;;;;24.03;19.63;;;;;;;;;;4937816;29;20621;-66
2023/05/08 07:08:01;;;;;;;22.93;18.40;;;;;;;;;;4922022;29;20671;-69
2023/05/08 07:10:29;;;;;;;19.27;17.23;;;;;;;;;;4944542;29;20738;-69
2023/05/08 07:12:58;;;;;;;17.23;15.53;;;;;;;;;;4954338;29;20739;-70
2023/05/08 07:15:27;;;;;;;20.97;16.30;;;;;;;;;;4937322;29;20636;-68
2023/05/08 07:17:56;;;;;;;16.20;14.60;;;;;;;;;;4932694;29;20696;-67
2023/05/08 07:20:24;;;;;;;18.50;15.30;;;;;;;;;;4933668;29;21199;-69
2023/05/08 07:22:52;;;;;;;16.40;14.67;;;;;;;;;;4936248;29;20695;-68
2023/05/08 07:25:20;;;;;;;17.93;14.57;;;;;;;;;;4933541;29;20621;-69
2023/05/08 07:27:49;;;;;;;14.87;13.20;;;;;;;;;;4932873;29;20637;-69
2023/05/08 07:30:17;;;;;;;15.50;14.00;;;;;;;;;;4941635;29;20696;-70
2023/05/08 07:32:47;;;;;;;17.37;13.67;;;;;;;;;;4946502;29;20640;-70
2023/05/08 07:35:15;;;;;;;14.20;12.40;;;;;;;;;;4950387;29;20651;-68
2023/05/08 07:37:43;;;;;;;13.43;11.83;;;;;;;;;;4934616;29;20619;-68
2023/05/08 07:40:12;;;;;;;11.63;10.53;;;;;;;;;;4951616;29;21103;-67
2023/05/08 07:42:40;;;;;;;15.73;10.97;;;;;;;;;;4959075;29;20675;-69
2023/05/08 07:45:10;;;;;;;14.23;12.73;;;;;;;;;;4943044;29;20751;-69
2023/05/08 07:47:38;;;;;;;13.33;11.87;;;;;;;;;;4946326;29;20712;-68
2023/05/08 07:50:09;;;;;;;13.93;12.10;;;;;;;;;;4948338;29;21069;-67
2023/05/08 07:52:37;;;;;;;16.30;11.40;;;;;;;;;;4950373;29;20652;-68
2023/05/08 07:55:05;;;;;;;14.03;12.53;;;;;;;;;;4950035;29;20670;-69
2023/05/08 07:57:37;;;;;;;12.83;11.57;;;;;;;;;;4935522;29;21282;-68
2023/05/08 08:00:06;;;;;;;11.23;10.13;;;;;;;;;;4965026;29;20599;-68
2023/05/08 08:02:41;;;;;;;13.10;11.43;;;;;;;;;;4955832;29;20672;-68
2023/05/08 08:05:11;;;;;;;20.17;12.77;;;;;;;;;;4957695;29;20720;-66
2023/05/08 08:07:39;;;;;;;18.47;11.93;;;;;;;;;;4958209;28;20648;-66
2023/05/08 08:10:08;;;;;;;11.70;10.60;;;;;;;;;;4953962;29;20719;-66
2023/05/08 08:12:36;;;;;;;11.47;10.30;;;;;;;;;;4955747;29;20605;-66
2023/05/08 08:15:05;;;;;;;11.57;10.47;;;;;;;;;;4937912;29;20615;-66
2023/05/08 08:17:33;;;;;;;15.60;11.67;;;;;;;;;;4969011;29;20651;-67
2023/05/08 08:20:03;;;;;;;12.97;11.63;;;;;;;;;;4950941;29;20965;-68
2023/05/08 08:22:33;;;;;;;18.70;12.07;;;;;;;;;;4952462;29;20638;-68
2023/05/08 08:25:01;;;;;;;13.70;12.30;;;;;;;;;;4936246;29;20725;-67
2023/05/08 08:27:29;;;;;;;12.43;11.13;;;;;;;;;;4950180;29;20655;-68
2023/05/08 08:29:58;;;;;;;12.47;11.27;;;;;;;;;;4938883;29;20632;-68
2023/05/08 08:32:26;;;;;;;12.53;11.33;;;;;;;;;;4944060;29;20715;-67
2023/05/08 08:34:54;;;;;;;11.67;10.47;;;;;;;;;;4943041;29;20723;-69
2023/05/08 08:37:23;;;;;;;12.30;11.10;;;;;;;;;;4945099;29;20760;-67
2023/05/08 08:39:52;;;;;;;11.33;10.27;;;;;;;;;;4950280;29;20838;-67
2023/05/08 08:42:22;;;;;;;11.13;10.00;;;;;;;;;;4951805;29;20633;-68
2023/05/08 08:44:50;;;;;;;13.73;10.07;;;;;;;;;;4944431;29;20722;-68
2023/05/08 08:47:19;;;;;;;10.93;9.70;;;;;;;;;;4942496;29;20711;-68
2023/05/08 08:49:48;;;;;;;11.07;9.80;;;;;;;;;;4951015;29;20685;-68
2023/05/08 08:52:31;;;;;;;10.53;9.43;;;;;;;;;;4957337;29;20671;-67
2023/05/08 08:55:03;;;;;;;12.20;11.00;;;;;;;;;;4955573;29;20631;-68
2023/05/08 08:57:33;;;;;;;11.23;10.23;;;;;;;;;;4957085;29;20829;-67
2023/05/08 09:00:04;;;;;;;12.57;11.27;;;;;;;;;;4952356;29;20634;-68
2023/05/08 09:02:33;;;;;;;11.67;10.47;;;;;;;;;;4954094;29;20680;-67
2023/05/08 09:05:01;;;;;;;11.73;10.67;;;;;;;;;;4952542;29;21123;-68
2023/05/08 09:07:30;;;;;;;11.53;10.43;;;;;;;;;;4938770;29;20623;-68
2023/05/08 09:09:59;;;;;;;13.80;11.20;;;;;;;;;;4952690;29;20703;-68
2023/05/08 09:12:28;;;;;;;14.17;12.77;;;;;;;;;;4934966;29;20700;-68
2023/05/08 09:15:00;;;;;;;12.50;11.20;;;;;;;;;;4935680;29;20699;-68
2023/05/08 09:17:28;;;;;;;11.13;10.00;;;;;;;;;;4945173;29;20734;-67
2023/05/08 09:19:56;;;;;;;12.07;10.97;;;;;;;;;;4954106;29;20660;-67
2023/05/08 09:22:25;;;;;;;14.70;12.43;;;;;;;;;;4956305;29;20627;-67
2023/05/08 09:24:57;;;;;;;14.73;11.67;;;;;;;;;;4936665;29;20668;-67
2023/05/08 09:27:25;;;;;;;13.03;11.73;;;;;;;;;;4939108;29;20627;-67
2023/05/08 09:30:03;;;;;;;19.03;12.00;;;;;;;;;;4948816;29;20756;-67
2023/05/08 09:32:33;;;;;;;12.70;11.50;;;;;;;;;;4950960;29;20665;-66
2023/05/08 09:35:02;;;;;;;14.17;12.70;;;;;;;;;;4952216;28;20664;-66
2023/05/08 09:37:30;;;;;;;14.30;12.90;;;;;;;;;;4951884;29;20719;-67
2023/05/08 09:40:15;;;;;;;14.53;12.83;;;;;;;;;;4946359;29;20696;-66
2023/05/08 09:42:43;;;;;;;17.43;14.30;;;;;;;;;;4940905;29;20603;-67
2023/05/08 09:45:13;;;;;;;16.20;13.90;;;;;;;;;;4942286;28;20771;-68
2023/05/08 09:47:48;;;;;;;14.67;13.17;;;;;;;;;;4938861;29;20632;-69
2023/05/08 09:50:16;;;;;;;16.17;14.43;;;;;;;;;;4937190;29;20596;-68
2023/05/08 09:52:46;;;;;;;13.67;12.33;;;;;;;;;;4941640;29;20715;-67
2023/05/08 09:55:15;;;;;;;17.53;15.47;;;;;;;;;;4944521;29;20672;-66
2023/05/08 09:57:52;;;;;;;14.80;13.40;;;;;;;;;;4954705;29;20628;-66
2023/05/08 10:00:23;;;;;;;16.13;14.43;;;;;;;;;;4940700;29;20608;-68
2023/05/08 10:02:55;;;;;;;20.77;14.67;;;;;;;;;;4950666;29;20613;-67
2023/05/08 10:05:25;;;;;;;18.27;15.13;;;;;;;;;;4944099;29;20751;-67
2023/05/08 10:07:53;;;;;;;18.33;14.40;;;;;;;;;;4951874;29;20652;-65
2023/05/08 10:10:24;;;;;;;16.50;13.67;;;;;;;;;;4949939;29;21057;-66
2023/05/08 10:12:54;;;;;;;15.37;12.83;;;;;;;;;;4956757;29;20614;-68
2023/05/08 10:15:24;;;;;;;15.30;13.30;;;;;;;;;;4954140;28;20641;-66
2023/05/08 10:17:55;;;;;;;18.47;14.07;;;;;;;;;;4947146;29;21218;-67
2023/05/08 10:20:26;;;;;;;15.27;13.67;;;;;;;;;;4949995;29;20690;-65
2023/05/08 10:22:56;;;;;;;16.73;13.80;;;;;;;;;;4950564;29;20640;-67
2023/05/08 10:25:24;;;;;;;15.30;13.60;;;;;;;;;;4938377;29;21076;-68
2023/05/08 10:27:56;;;;;;;24.67;15.40;;;;;;;;;;4921232;29;20699;-68
2023/05/08 10:30:27;;;;;;;16.60;14.70;;;;;;;;;;4940156;29;20692;-68
2023/05/08 10:32:58;;;;;;;16.67;13.00;;;;;;;;;;4936433;29;21042;-68
2023/05/08 10:35:26;;;;;;;15.57;13.97;;;;;;;;;;4938382;29;21012;-67
2023/05/08 10:37:57;;;;;;;15.87;14.27;;;;;;;;;;4938389;29;20624;-68
2023/05/08 10:40:25;;;;;;;17.37;14.90;;;;;;;;;;4904436;29;20592;-69
2023/05/08 10:42:53;;;;;;;16.27;14.50;;;;;;;;;;4937365;29;20635;-68
2023/05/08 10:45:22;;;;;;;16.57;14.83;;;;;;;;;;4931755;29;21261;-68
2023/05/08 10:47:58;;;;;;;16.50;14.40;;;;;;;;;;4932539;29;20684;-68
2023/05/08 10:50:35;;;;;;;17.60;14.83;;;;;;;;;;4934464;29;20705;-70
2023/05/08 10:53:07;;;;;;;19.07;16.20;;;;;;;;;;4947315;29;20707;-66
2023/05/08 10:55:37;;;;;;;17.80;15.50;;;;;;;;;;4953780;29;20624;-66
2023/05/08 10:58:07;;;;;;;17.27;14.87;;;;;;;;;;4952041;29;20640;-65
2023/05/08 11:01:07;;;;;;;16.83;15.23;;;;;;;;;;4937802;29;20663;-66
2023/05/08 11:03:41;;;;;;;16.40;14.57;;;;;;;;;;4962824;29;20673;-65
2023/05/08 11:06:09;;;;;;;18.20;16.23;;;;;;;;;;4958210;29;20654;-66
2023/05/08 11:08:46;;;;;;;16.80;14.60;;;;;;;;;;4961178;29;20659;-65
2023/05/08 11:11:18;;;;;;;14.30;12.87;;;;;;;;;;4952071;29;20711;-66
2023/05/08 11:13:48;;;;;;;17.77;15.90;;;;;;;;;;4954734;29;20707;-66
2023/05/08 11:16:17;;;;;;;14.80;13.40;;;;;;;;;;4938841;29;20648;-67
2023/05/08 11:19:04;;;;;;;17.63;14.93;;;;;;;;;;4954574;29;20644;-66
2023/05/08 11:21:34;;;;;;;16.60;14.90;;;;;;;;;;4954876;29;20628;-66
2023/05/08 11:24:10;;;;;;;13.53;12.33;;;;;;;;;;4945746;29;20675;-66
2023/05/08 11:26:39;;;;;;;17.40;12.70;;;;;;;;;;4945394;29;20676;-65
2023/05/08 11:29:17;;;;;;;15.57;13.23;;;;;;;;;;4954043;29;20660;-66
2023/05/08 11:31:51;;;;;;;16.17;14.60;;;;;;;;;;4952328;29;20647;-68
2023/05/08 11:34:39;;;;;;;16.07;13.40;;;;;;;;;;4946320;29;20628;-69
2023/05/08 11:37:11;;;;;;;13.67;12.27;;;;;;;;;;4949410;29;21050;-67
2023/05/08 11:39:39;;;;;;;15.73;13.80;;;;;;;;;;4939908;29;20640;-67
2023/05/08 11:42:31;;;;;;;16.70;14.93;;;;;;;;;;4947676;29;20721;-67
2023/05/08 11:45:04;;;;;;;15.40;13.80;;;;;;;;;;4929537;29;20664;-68
2023/05/08 11:47:37;;;;;;;14.03;12.53;;;;;;;;;;4950808;29;20636;-68
2023/05/08 11:50:06;;;;;;;14.07;11.73;;;;;;;;;;4948331;29;20667;-66
2023/05/08 11:52:36;;;;;;;12.73;11.53;;;;;;;;;;4948323;29;20691;-69
2023/05/08 11:55:05;;;;;;;14.53;11.17;;;;;;;;;;4947744;29;20645;-68
2023/05/08 11:57:34;;;;;;;10.97;9.97;;;;;;;;;;4950116;29;20637;-68
2023/05/08 12:00:05;;;;;;;10.40;9.47;;;;;;;;;;4945334;29;20731;-68
2023/05/08 12:02:37;;;;;;;10.87;9.87;;;;;;;;;;4942232;29;20640;-67
2023/05/08 12:05:06;;;;;;;12.20;11.10;;;;;;;;;;4945991;29;21183;-68
2023/05/08 12:07:43;;;;;;;12.83;11.63;;;;;;;;;;4955295;29;20655;-68
2023/05/08 12:10:11;;;;;;;11.60;10.40;;;;;;;;;;4948645;29;21098;-68
2023/05/08 12:12:40;;;;;;;11.70;10.60;;;;;;;;;;4946679;29;20685;-67
2023/05/08 12:15:09;;;;;;;12.80;11.57;;;;;;;;;;4952937;29;20663;-67
2023/05/08 12:17:37;;;;;;;13.57;12.07;;;;;;;;;;4945968;29;20711;-67
2023/05/08 12:20:12;;;;;;;13.23;12.00;;;;;;;;;;4943547;29;20748;-66
2023/05/08 12:22:42;;;;;;;13.37;12.17;;;;;;;;;;4912245;29;20697;-66
2023/05/08 12:25:11;;;;;;;13.70;12.47;;;;;;;;;;4925450;29;20693;-67
2023/05/08 12:27:40;;;;;;;13.70;12.30;;;;;;;;;;4914223;29;20696;-67
2023/05/08 12:30:09;;;;;;;12.63;11.43;;;;;;;;;;4942397;29;20700;-68
2023/05/08 12:32:38;;;;;;;11.20;10.23;;;;;;;;;;4944782;29;20735;-67
2023/05/08 12:35:07;;;;;;;13.07;11.93;;;;;;;;;;4943197;29;20639;-68
2023/05/08 12:37:36;;;;;;;12.17;10.90;;;;;;;;;;4947172;29;20703;-65
2023/05/08 12:40:06;;;;;;;12.67;11.67;;;;;;;;;;4946760;29;20696;-67
2023/05/08 12:42:44;;;;;;;11.57;10.57;;;;;;;;;;4949233;29;20638;-66
2023/05/08 12:45:18;;;;;;;11.80;10.80;;;;;;;;;;4943761;29;20719;-67
2023/05/08 12:47:47;;;;;;;11.70;10.70;;;;;;;;;;4946867;29;21049;-68
2023/05/08 12:50:15;;;;;;;12.10;10.93;;;;;;;;;;4951534;29;21258;-67
2023/05/08 12:52:44;;;;;;;11.90;10.80;;;;;;;;;;4950467;29;20660;-68
2023/05/08 12:55:23;;;;;;;11.67;10.57;;;;;;;;;;4954029;29;20687;-66
2023/05/08 12:57:59;;;;;;;9.80;9.10;;;;;;;;;;4952700;29;20632;-68
2023/05/08 13:00:35;;;;;;;11.23;10.27;;;;;;;;;;4944943;29;20710;-66
2023/05/08 13:03:04;;;;;;;10.57;9.63;;;;;;;;;;4942979;29;20680;-68
2023/05/08 13:05:32;;;;;;;11.23;9.30;;;;;;;;;;4942078;29;21058;-68
2023/05/08 13:08:01;;;;;;;10.00;9.20;;;;;;;;;;4939623;29;20716;-67
2023/05/08 13:10:50;;;;;;;9.60;8.90;;;;;;;;;;4948600;29;21102;-67
2023/05/08 13:13:20;;;;;;;9.43;8.53;;;;;;;;;;4941754;29;20739;-68
2023/05/08 13:15:49;;;;;;;10.23;9.33;;;;;;;;;;4942077;29;21083;-68
2023/05/08 13:18:18;;;;;;;9.60;8.23;;;;;;;;;;4928471;29;20696;-67
2023/05/08 13:20:46;;;;;;;9.80;9.20;;;;;;;;;;4949689;29;20705;-67
2023/05/08 13:23:14;;;;;;;9.23;8.63;;;;;;;;;;4948900;29;20774;-68
2023/05/08 13:25:42;;;;;;;10.87;10.13;;;;;;;;;;4956122;29;20248;-67
2023/05/08 13:28:11;;;;;;;12.43;11.63;;;;;;;;;;4953978;29;20652;-68
2023/05/08 13:30:41;;;;;;;14.10;13.00;;;;;;;;;;4955620;29;20632;-67
2023/05/08 13:33:09;;;;;;;14.30;13.30;;;;;;;;;;4954563;29;20636;-68
2023/05/08 13:35:37;;;;;;;13.37;12.10;;;;;;;;;;4952764;29;20636;-67
2023/05/08 13:38:05;;;;;;;11.83;10.83;;;;;;;;;;4940263;29;20778;-65
2023/05/08 13:40:35;;;;;;;13.00;12.03;;;;;;;;;;4953922;29;20673;-68
2023/05/08 13:43:03;;;;;;;12.57;11.43;;;;;;;;;;4954431;29;20643;-67
2023/05/08 13:45:31;;;;;;;12.00;11.03;;;;;;;;;;4934365;29;20648;-68
2023/05/08 13:48:01;;;;;;;10.83;10.03;;;;;;;;;;4947337;29;20732;-68
2023/05/08 13:50:29;;;;;;;11.43;10.63;;;;;;;;;;4950421;29;20684;-66
2023/05/08 13:52:57;;;;;;;13.60;11.07;;;;;;;;;;4949595;29;20636;-66
2023/05/08 13:55:26;;;;;;;10.07;9.27;;;;;;;;;;4947152;29;20728;-67
2023/05/08 13:57:54;;;;;;;11.03;9.60;;;;;;;;;;4948306;29;20727;-66
2023/05/08 14:00:22;;;;;;;9.60;8.90;;;;;;;;;;4932778;29;20701;-66
2023/05/08 14:02:50;;;;;;;8.90;8.20;;;;;;;;;;4947599;29;20700;-65
2023/05/08 14:05:20;;;;;;;8.97;8.23;;;;;;;;;;4951499;29;20651;-65
2023/05/08 14:07:48;;;;;;;8.93;8.30;;;;;;;;;;4926490;29;20724;-67
2023/05/08 14:10:16;;;;;;;9.83;8.87;;;;;;;;;;4950215;29;20664;-66
2023/05/08 14:12:45;;;;;;;7.70;7.20;;;;;;;;;;4954449;29;20637;-65
2023/05/08 14:15:13;;;;;;;6.97;6.47;;;;;;;;;;4950944;29;20656;-67
2023/05/08 14:17:42;;;;;;;7.90;7.20;;;;;;;;;;4952519;29;20676;-68
2023/05/08 14:20:11;;;;;;;8.07;7.27;;;;;;;;;;4954016;29;20648;-67
2023/05/08 14:22:41;;;;;;;7.00;6.57;;;;;;;;;;4954025;29;20652;-67
2023/05/08 14:25:10;;;;;;;7.70;7.10;;;;;;;;;;4954391;29;20644;-67
2023/05/08 14:27:38;;;;;;;7.23;6.47;;;;;;;;;;4953367;29;20688;-67
2023/05/08 14:30:07;;;;;;;12.97;11.77;;;;;;;;;;4954086;29;20664;-67
2023/05/08 14:32:35;;;;;;;11.50;10.60;;;;;;;;;;4939696;29;20620;-68
2023/05/08 14:35:03;;;;;;;13.17;11.83;;;;;;;;;;4941919;29;20707;-67